sensor_id;sensor_type;location;lat;lon;timestamp;temperature;humidity
62154;DHT22;48140;45.486;9.226;2023-09-19T00:00:30;20.40;99.90
62154;DHT22;48140;45.486;9.226;2023-09-19T00:02:57;20.40;99.90
62154;DHT22;48140;45.486;9.226;2023-09-19T00:05:25;20.50;99.90
62154;DHT22;48140;45.486;9.226;2023-09-19T00:07:56;20.60;99.90
62154;DHT22;48140;45.486;9.226;2023-09-19T00:10:27;20.50;99.90
62154;DHT22;48140;45.486;9.226;2023-09-19T00:12:53;20.50;99.90
62154;DHT22;48140;45.486;9.226;2023-09-19T00:15:22;20.50;99.90
62154;DHT22;48140;45.486;9.226;2023-09-19T00:17:48;20.50;99.90
62154;DHT22;48140;45.486;9.226;2023-09-19T00:20:13;20.50;99.90
62154;DHT22;48140;45.486;9.226;2023-09-19T00:22:42;20.50;99.90
62154;DHT22;48140;45.486;9.226;2023-09-19T00:25:08;20.40;99.90
62154;DHT22;48140;45.486;9.226;2023-09-19T00:27:35;20.40;99.90
62154;DHT22;48140;45.486;9.226;2023-09-19T00:30:00;20.40;99.90
62154;DHT22;48140;45.486;9.226;2023-09-19T00:32:26;20.40;99.90
62154;DHT22;48140;45.486;9.226;2023-09-19T00:34:57;20.40;99.90
62154;DHT22;48140;45.486;9.226;2023-09-19T00:37:23;20.40;99.90
62154;DHT22;48140;45.486;9.226;2023-09-19T00:39:48;20.50;99.90
62154;DHT22;48140;45.486;9.226;2023-09-19T00:42:20;20.40;99.90
62154;DHT22;48140;45.486;9.226;2023-09-19T00:44:46;20.50;99.90
62154;DHT22;48140;45.486;9.226;2023-09-19T00:47:12;20.50;99.90
62154;DHT22;48140;45.486;9.226;2023-09-19T00:49:42;20.50;99.90
62154;DHT22;48140;45.486;9.226;2023-09-19T00:52:07;20.50;99.90
62154;DHT22;48140;45.486;9.226;2023-09-19T00:54:35;20.40;99.90
62154;DHT22;48140;45.486;9.226;2023-09-19T00:57:01;20.40;99.90
62154;DHT22;48140;45.486;9.226;2023-09-19T00:59:27;20.30;99.90
62154;DHT22;48140;45.486;9.226;2023-09-19T01:01:53;20.30;99.90
62154;DHT22;48140;45.486;9.226;2023-09-19T01:04:19;20.30;99.90
62154;DHT22;48140;45.486;9.226;2023-09-19T01:06:45;20.30;99.90
62154;DHT22;48140;45.486;9.226;2023-09-19T01:09:11;20.30;99.90
62154;DHT22;48140;45.486;9.226;2023-09-19T01:11:40;20.20;99.90
62154;DHT22;48140;45.486;9.226;2023-09-19T01:14:25;20.20;99.90
62154;DHT22;48140;45.486;9.226;2023-09-19T01:19:55;20.30;99.90
62154;DHT22;48140;45.486;9.226;2023-09-19T01:27:53;20.40;99.90
62154;DHT22;48140;45.486;9.226;2023-09-19T01:30:31;20.30;99.90
62154;DHT22;48140;45.486;9.226;2023-09-19T01:32:58;20.30;99.90
62154;DHT22;48140;45.486;9.226;2023-09-19T01:35:27;20.30;99.90
62154;DHT22;48140;45.486;9.226;2023-09-19T01:37:53;20.30;99.90
62154;DHT22;48140;45.486;9.226;2023-09-19T01:40:19;20.30;99.90
62154;DHT22;48140;45.486;9.226;2023-09-19T01:43:08;20.30;99.90
62154;DHT22;48140;45.486;9.226;2023-09-19T01:48:12;20.20;99.90
62154;DHT22;48140;45.486;9.226;2023-09-19T01:53:15;20.20;99.90
62154;DHT22;48140;45.486;9.226;2023-09-19T01:55:43;20.20;99.90
62154;DHT22;48140;45.486;9.226;2023-09-19T02:00:41;20.10;99.90
62154;DHT22;48140;45.486;9.226;2023-09-19T02:03:09;20.10;99.90
62154;DHT22;48140;45.486;9.226;2023-09-19T02:05:34;20.00;99.90
62154;DHT22;48140;45.486;9.226;2023-09-19T02:08:00;20.00;99.90
62154;DHT22;48140;45.486;9.226;2023-09-19T02:10:26;19.90;99.90
62154;DHT22;48140;45.486;9.226;2023-09-19T02:12:51;20.00;99.90
62154;DHT22;48140;45.486;9.226;2023-09-19T02:15:17;20.00;99.90
62154;DHT22;48140;45.486;9.226;2023-09-19T02:17:43;20.00;99.90
62154;DHT22;48140;45.486;9.226;2023-09-19T02:20:10;19.90;99.90
62154;DHT22;48140;45.486;9.226;2023-09-19T02:22:40;19.90;99.90
62154;DHT22;48140;45.486;9.226;2023-09-19T02:25:06;19.90;99.90
62154;DHT22;48140;45.486;9.226;2023-09-19T02:27:32;19.80;99.90
62154;DHT22;48140;45.486;9.226;2023-09-19T02:29:58;19.80;99.90
62154;DHT22;48140;45.486;9.226;2023-09-19T02:32:23;19.80;99.90
62154;DHT22;48140;45.486;9.226;2023-09-19T02:34:49;19.70;99.90
62154;DHT22;48140;45.486;9.226;2023-09-19T02:37:17;19.70;99.90
62154;DHT22;48140;45.486;9.226;2023-09-19T02:39:44;19.70;99.90
62154;DHT22;48140;45.486;9.226;2023-09-19T02:42:10;19.70;99.90
62154;DHT22;48140;45.486;9.226;2023-09-19T02:44:36;19.70;99.90
62154;DHT22;48140;45.486;9.226;2023-09-19T02:47:03;19.70;99.90
62154;DHT22;48140;45.486;9.226;2023-09-19T02:49:29;19.70;99.90
62154;DHT22;48140;45.486;9.226;2023-09-19T02:51:55;19.70;99.90
62154;DHT22;48140;45.486;9.226;2023-09-19T02:54:21;19.70;99.90
62154;DHT22;48140;45.486;9.226;2023-09-19T02:56:47;19.60;99.90
62154;DHT22;48140;45.486;9.226;2023-09-19T02:59:12;19.60;99.90
62154;DHT22;48140;45.486;9.226;2023-09-19T03:01:38;19.60;99.90
62154;DHT22;48140;45.486;9.226;2023-09-19T03:04:04;19.60;99.90
62154;DHT22;48140;45.486;9.226;2023-09-19T03:06:35;19.50;99.90
62154;DHT22;48140;45.486;9.226;2023-09-19T03:09:00;19.50;99.90
62154;DHT22;48140;45.486;9.226;2023-09-19T03:11:26;19.50;99.90
62154;DHT22;48140;45.486;9.226;2023-09-19T03:13:52;19.50;99.90
62154;DHT22;48140;45.486;9.226;2023-09-19T03:16:18;19.50;99.90
62154;DHT22;48140;45.486;9.226;2023-09-19T03:18:47;19.50;99.90
62154;DHT22;48140;45.486;9.226;2023-09-19T03:21:16;19.50;99.90
62154;DHT22;48140;45.486;9.226;2023-09-19T03:23:44;19.50;99.90
62154;DHT22;48140;45.486;9.226;2023-09-19T03:26:12;19.50;99.90
62154;DHT22;48140;45.486;9.226;2023-09-19T03:28:41;19.40;99.90
62154;DHT22;48140;45.486;9.226;2023-09-19T03:31:07;19.40;99.90
62154;DHT22;48140;45.486;9.226;2023-09-19T03:33:33;19.40;99.90
62154;DHT22;48140;45.486;9.226;2023-09-19T03:35:59;19.40;99.90
62154;DHT22;48140;45.486;9.226;2023-09-19T03:38:26;19.40;99.90
62154;DHT22;48140;45.486;9.226;2023-09-19T03:40:52;19.40;99.90
62154;DHT22;48140;45.486;9.226;2023-09-19T03:43:17;19.40;99.90
62154;DHT22;48140;45.486;9.226;2023-09-19T03:45:43;19.40;99.90
62154;DHT22;48140;45.486;9.226;2023-09-19T03:48:09;19.40;99.90
62154;DHT22;48140;45.486;9.226;2023-09-19T03:50:34;19.40;99.90
62154;DHT22;48140;45.486;9.226;2023-09-19T03:53:00;19.50;99.90
62154;DHT22;48140;45.486;9.226;2023-09-19T03:55:25;19.40;99.90
62154;DHT22;48140;45.486;9.226;2023-09-19T03:57:52;19.40;99.90
62154;DHT22;48140;45.486;9.226;2023-09-19T04:00:18;19.40;99.90
62154;DHT22;48140;45.486;9.226;2023-09-19T04:02:46;19.40;99.90
62154;DHT22;48140;45.486;9.226;2023-09-19T04:05:12;19.40;99.90
62154;DHT22;48140;45.486;9.226;2023-09-19T04:07:37;19.40;99.90
62154;DHT22;48140;45.486;9.226;2023-09-19T04:10:03;19.30;99.90
62154;DHT22;48140;45.486;9.226;2023-09-19T04:12:28;19.30;99.90
62154;DHT22;48140;45.486;9.226;2023-09-19T04:14:54;19.40;99.90
62154;DHT22;48140;45.486;9.226;2023-09-19T04:17:20;19.40;99.90
62154;DHT22;48140;45.486;9.226;2023-09-19T04:19:45;19.40;99.90
62154;DHT22;48140;45.486;9.226;2023-09-19T04:22:11;19.40;99.90
62154;DHT22;48140;45.486;9.226;2023-09-19T04:24:38;19.30;99.90
62154;DHT22;48140;45.486;9.226;2023-09-19T04:27:04;19.40;99.90
62154;DHT22;48140;45.486;9.226;2023-09-19T04:29:29;19.40;99.90
62154;DHT22;48140;45.486;9.226;2023-09-19T04:31:55;19.40;99.90
62154;DHT22;48140;45.486;9.226;2023-09-19T04:34:22;19.30;99.90
62154;DHT22;48140;45.486;9.226;2023-09-19T04:36:49;19.30;99.90
62154;DHT22;48140;45.486;9.226;2023-09-19T04:39:15;19.30;99.90
62154;DHT22;48140;45.486;9.226;2023-09-19T04:41:40;19.30;99.90
62154;DHT22;48140;45.486;9.226;2023-09-19T04:44:07;19.30;99.90
62154;DHT22;48140;45.486;9.226;2023-09-19T04:46:33;19.30;99.90
62154;DHT22;48140;45.486;9.226;2023-09-19T04:48:59;19.30;99.90
62154;DHT22;48140;45.486;9.226;2023-09-19T04:51:24;19.30;99.90
62154;DHT22;48140;45.486;9.226;2023-09-19T04:53:50;19.40;99.90
62154;DHT22;48140;45.486;9.226;2023-09-19T04:56:16;19.40;99.90
62154;DHT22;48140;45.486;9.226;2023-09-19T04:58:42;19.30;99.90
62154;DHT22;48140;45.486;9.226;2023-09-19T05:01:07;19.30;99.90
62154;DHT22;48140;45.486;9.226;2023-09-19T05:03:36;19.30;99.90
62154;DHT22;48140;45.486;9.226;2023-09-19T05:06:02;19.30;99.90
62154;DHT22;48140;45.486;9.226;2023-09-19T05:08:28;19.30;99.90
62154;DHT22;48140;45.486;9.226;2023-09-19T05:10:54;19.30;99.90
62154;DHT22;48140;45.486;9.226;2023-09-19T05:13:21;19.20;99.90
62154;DHT22;48140;45.486;9.226;2023-09-19T05:15:48;19.30;99.90
62154;DHT22;48140;45.486;9.226;2023-09-19T05:18:15;19.30;99.90
62154;DHT22;48140;45.486;9.226;2023-09-19T05:20:41;19.40;99.90
62154;DHT22;48140;45.486;9.226;2023-09-19T05:23:07;19.30;99.90
62154;DHT22;48140;45.486;9.226;2023-09-19T05:25:39;19.30;99.90
62154;DHT22;48140;45.486;9.226;2023-09-19T05:28:09;19.30;99.90
62154;DHT22;48140;45.486;9.226;2023-09-19T05:30:35;19.40;99.90
62154;DHT22;48140;45.486;9.226;2023-09-19T05:33:05;19.40;99.90
62154;DHT22;48140;45.486;9.226;2023-09-19T05:35:31;19.40;99.90
62154;DHT22;48140;45.486;9.226;2023-09-19T05:37:57;19.40;99.90
62154;DHT22;48140;45.486;9.226;2023-09-19T05:40:24;19.50;99.90
62154;DHT22;48140;45.486;9.226;2023-09-19T05:42:50;19.50;99.90
62154;DHT22;48140;45.486;9.226;2023-09-19T05:45:16;19.50;99.90
62154;DHT22;48140;45.486;9.226;2023-09-19T05:47:48;19.50;99.90
62154;DHT22;48140;45.486;9.226;2023-09-19T05:50:14;19.60;99.90
62154;DHT22;48140;45.486;9.226;2023-09-19T05:52:41;19.60;99.90
62154;DHT22;48140;45.486;9.226;2023-09-19T05:55:08;19.60;99.90
62154;DHT22;48140;45.486;9.226;2023-09-19T05:57:34;19.60;99.90
62154;DHT22;48140;45.486;9.226;2023-09-19T06:00:00;19.60;99.90
62154;DHT22;48140;45.486;9.226;2023-09-19T06:02:25;19.70;99.90
62154;DHT22;48140;45.486;9.226;2023-09-19T06:04:54;19.70;99.90
62154;DHT22;48140;45.486;9.226;2023-09-19T06:07:21;19.70;99.90
62154;DHT22;48140;45.486;9.226;2023-09-19T06:09:47;19.70;99.90
62154;DHT22;48140;45.486;9.226;2023-09-19T06:12:13;19.80;99.90
62154;DHT22;48140;45.486;9.226;2023-09-19T06:14:42;19.90;99.90
62154;DHT22;48140;45.486;9.226;2023-09-19T06:17:08;20.00;99.90
62154;DHT22;48140;45.486;9.226;2023-09-19T06:19:34;20.00;99.90
62154;DHT22;48140;45.486;9.226;2023-09-19T06:21:59;20.10;99.90
62154;DHT22;48140;45.486;9.226;2023-09-19T06:24:25;20.00;99.90
62154;DHT22;48140;45.486;9.226;2023-09-19T06:26:58;20.10;99.90
62154;DHT22;48140;45.486;9.226;2023-09-19T06:29:26;20.20;99.90
62154;DHT22;48140;45.486;9.226;2023-09-19T06:31:52;20.30;99.90
62154;DHT22;48140;45.486;9.226;2023-09-19T06:34:17;20.40;99.90
62154;DHT22;48140;45.486;9.226;2023-09-19T06:36:43;20.60;99.90
62154;DHT22;48140;45.486;9.226;2023-09-19T06:39:10;20.80;99.90
62154;DHT22;48140;45.486;9.226;2023-09-19T06:41:39;20.90;99.90
62154;DHT22;48140;45.486;9.226;2023-09-19T06:44:06;21.00;99.90
62154;DHT22;48140;45.486;9.226;2023-09-19T06:46:32;21.10;99.90
62154;DHT22;48140;45.486;9.226;2023-09-19T06:49:00;21.10;99.90
62154;DHT22;48140;45.486;9.226;2023-09-19T06:51:26;21.10;99.90
62154;DHT22;48140;45.486;9.226;2023-09-19T06:54:01;21.20;99.90
62154;DHT22;48140;45.486;9.226;2023-09-19T06:56:26;21.20;99.90
62154;DHT22;48140;45.486;9.226;2023-09-19T06:58:52;21.20;99.90
62154;DHT22;48140;45.486;9.226;2023-09-19T07:01:18;21.10;99.90
62154;DHT22;48140;45.486;9.226;2023-09-19T07:03:43;21.20;99.90
62154;DHT22;48140;45.486;9.226;2023-09-19T07:06:10;21.20;99.90
62154;DHT22;48140;45.486;9.226;2023-09-19T07:08:36;21.20;99.90
62154;DHT22;48140;45.486;9.226;2023-09-19T07:11:05;21.20;99.90
62154;DHT22;48140;45.486;9.226;2023-09-19T07:13:31;21.40;99.90
62154;DHT22;48140;45.486;9.226;2023-09-19T07:16:00;21.50;99.90
62154;DHT22;48140;45.486;9.226;2023-09-19T07:18:26;21.60;99.90
62154;DHT22;48140;45.486;9.226;2023-09-19T07:20:56;21.60;99.90
62154;DHT22;48140;45.486;9.226;2023-09-19T07:23:24;21.60;99.90
62154;DHT22;48140;45.486;9.226;2023-09-19T07:25:51;21.60;99.90
62154;DHT22;48140;45.486;9.226;2023-09-19T07:28:16;21.70;99.90
62154;DHT22;48140;45.486;9.226;2023-09-19T07:30:42;21.90;99.90
62154;DHT22;48140;45.486;9.226;2023-09-19T07:33:08;21.90;99.90
62154;DHT22;48140;45.486;9.226;2023-09-19T07:35:36;21.90;99.90
62154;DHT22;48140;45.486;9.226;2023-09-19T07:38:02;22.00;99.90
62154;DHT22;48140;45.486;9.226;2023-09-19T07:40:28;21.90;99.90
62154;DHT22;48140;45.486;9.226;2023-09-19T07:42:57;21.90;99.90
62154;DHT22;48140;45.486;9.226;2023-09-19T07:45:27;22.00;99.90
62154;DHT22;48140;45.486;9.226;2023-09-19T07:47:53;22.00;99.90
62154;DHT22;48140;45.486;9.226;2023-09-19T07:50:19;22.20;99.90
62154;DHT22;48140;45.486;9.226;2023-09-19T07:52:45;22.20;99.90
62154;DHT22;48140;45.486;9.226;2023-09-19T07:55:11;22.10;99.90
62154;DHT22;48140;45.486;9.226;2023-09-19T07:57:36;22.30;99.90
62154;DHT22;48140;45.486;9.226;2023-09-19T08:00:02;22.30;99.90
62154;DHT22;48140;45.486;9.226;2023-09-19T08:02:34;22.40;99.90
62154;DHT22;48140;45.486;9.226;2023-09-19T08:05:00;22.60;99.90
62154;DHT22;48140;45.486;9.226;2023-09-19T08:07:25;22.70;99.90
62154;DHT22;48140;45.486;9.226;2023-09-19T08:09:51;22.80;99.90
62154;DHT22;48140;45.486;9.226;2023-09-19T08:12:16;22.90;99.90
62154;DHT22;48140;45.486;9.226;2023-09-19T08:14:42;23.00;99.90
62154;DHT22;48140;45.486;9.226;2023-09-19T08:17:08;23.00;99.90
62154;DHT22;48140;45.486;9.226;2023-09-19T08:19:34;23.00;99.90
62154;DHT22;48140;45.486;9.226;2023-09-19T08:21:59;23.20;99.90
62154;DHT22;48140;45.486;9.226;2023-09-19T08:24:29;23.40;99.90
62154;DHT22;48140;45.486;9.226;2023-09-19T08:26:55;23.60;99.90
62154;DHT22;48140;45.486;9.226;2023-09-19T08:29:21;23.50;99.90
62154;DHT22;48140;45.486;9.226;2023-09-19T08:31:56;23.70;99.90
62154;DHT22;48140;45.486;9.226;2023-09-19T08:34:22;23.70;99.90
62154;DHT22;48140;45.486;9.226;2023-09-19T08:36:50;23.80;99.90
62154;DHT22;48140;45.486;9.226;2023-09-19T08:39:15;23.70;99.90
62154;DHT22;48140;45.486;9.226;2023-09-19T08:41:43;24.00;99.90
62154;DHT22;48140;45.486;9.226;2023-09-19T08:44:09;24.20;99.90
62154;DHT22;48140;45.486;9.226;2023-09-19T08:46:35;24.20;99.90
62154;DHT22;48140;45.486;9.226;2023-09-19T08:49:04;24.20;99.90
62154;DHT22;48140;45.486;9.226;2023-09-19T08:54:03;24.80;99.90
62154;DHT22;48140;45.486;9.226;2023-09-19T08:56:32;25.00;99.90
62154;DHT22;48140;45.486;9.226;2023-09-19T08:59:05;25.20;99.90
62154;DHT22;48140;45.486;9.226;2023-09-19T09:01:32;25.30;99.90
62154;DHT22;48140;45.486;9.226;2023-09-19T09:03:58;25.30;99.90
62154;DHT22;48140;45.486;9.226;2023-09-19T09:06:25;24.90;99.90
62154;DHT22;48140;45.486;9.226;2023-09-19T09:08:50;24.40;99.90
62154;DHT22;48140;45.486;9.226;2023-09-19T09:11:16;24.50;99.90
62154;DHT22;48140;45.486;9.226;2023-09-19T09:13:46;24.30;99.90
62154;DHT22;48140;45.486;9.226;2023-09-19T09:16:13;24.30;99.90
62154;DHT22;48140;45.486;9.226;2023-09-19T09:18:39;23.90;99.90
62154;DHT22;48140;45.486;9.226;2023-09-19T09:21:04;23.70;99.90
62154;DHT22;48140;45.486;9.226;2023-09-19T09:23:30;23.70;99.90
62154;DHT22;48140;45.486;9.226;2023-09-19T09:25:57;23.90;99.90
62154;DHT22;48140;45.486;9.226;2023-09-19T09:28:28;24.10;99.90
62154;DHT22;48140;45.486;9.226;2023-09-19T09:30:57;24.80;99.90
62154;DHT22;48140;45.486;9.226;2023-09-19T09:33:23;25.40;99.90
62154;DHT22;48140;45.486;9.226;2023-09-19T09:35:53;25.90;99.90
62154;DHT22;48140;45.486;9.226;2023-09-19T09:38:19;26.40;99.90
62154;DHT22;48140;45.486;9.226;2023-09-19T09:40:46;26.50;99.90
62154;DHT22;48140;45.486;9.226;2023-09-19T09:43:25;26.80;99.90
62154;DHT22;48140;45.486;9.226;2023-09-19T09:46:05;26.30;99.90
62154;DHT22;48140;45.486;9.226;2023-09-19T09:51:46;27.00;99.90
62154;DHT22;48140;45.486;9.226;2023-09-19T09:54:23;27.00;99.90
62154;DHT22;48140;45.486;9.226;2023-09-19T09:56:56;26.90;99.90
62154;DHT22;48140;45.486;9.226;2023-09-19T10:02:09;27.50;99.90
62154;DHT22;48140;45.486;9.226;2023-09-19T10:04:39;27.60;99.90
62154;DHT22;48140;45.486;9.226;2023-09-19T10:07:24;28.00;99.90
62154;DHT22;48140;45.486;9.226;2023-09-19T10:09:53;28.30;99.90
62154;DHT22;48140;45.486;9.226;2023-09-19T10:12:24;28.40;99.90
62154;DHT22;48140;45.486;9.226;2023-09-19T10:14:52;28.40;99.90
62154;DHT22;48140;45.486;9.226;2023-09-19T10:17:19;28.10;99.90
62154;DHT22;48140;45.486;9.226;2023-09-19T10:19:46;28.40;99.90
62154;DHT22;48140;45.486;9.226;2023-09-19T10:22:22;28.50;99.90
62154;DHT22;48140;45.486;9.226;2023-09-19T10:24:49;28.80;99.90
62154;DHT22;48140;45.486;9.226;2023-09-19T10:27:19;28.80;98.20
62154;DHT22;48140;45.486;9.226;2023-09-19T10:29:45;28.90;98.50
62154;DHT22;48140;45.486;9.226;2023-09-19T10:32:15;29.30;98.50
62154;DHT22;48140;45.486;9.226;2023-09-19T10:34:45;29.00;97.90
62154;DHT22;48140;45.486;9.226;2023-09-19T10:37:18;29.00;96.40
62154;DHT22;48140;45.486;9.226;2023-09-19T10:39:46;29.20;96.30
62154;DHT22;48140;45.486;9.226;2023-09-19T10:42:14;28.90;95.40
62154;DHT22;48140;45.486;9.226;2023-09-19T10:44:42;29.30;95.80
62154;DHT22;48140;45.486;9.226;2023-09-19T10:47:09;29.10;94.60
62154;DHT22;48140;45.486;9.226;2023-09-19T10:49:42;29.00;94.70
62154;DHT22;48140;45.486;9.226;2023-09-19T10:52:08;29.30;94.30
62154;DHT22;48140;45.486;9.226;2023-09-19T10:54:37;28.90;94.40
62154;DHT22;48140;45.486;9.226;2023-09-19T10:57:04;29.10;94.00
62154;DHT22;48140;45.486;9.226;2023-09-19T10:59:30;29.20;91.60
62154;DHT22;48140;45.486;9.226;2023-09-19T11:02:00;28.70;91.90
62154;DHT22;48140;45.486;9.226;2023-09-19T11:04:40;28.90;92.00
62154;DHT22;48140;45.486;9.226;2023-09-19T11:07:10;29.50;91.70
62154;DHT22;48140;45.486;9.226;2023-09-19T11:12:08;30.20;90.30
62154;DHT22;48140;45.486;9.226;2023-09-19T11:14:40;30.20;88.90
62154;DHT22;48140;45.486;9.226;2023-09-19T11:22:25;28.60;91.40
62154;DHT22;48140;45.486;9.226;2023-09-19T11:24:51;29.30;91.10
62154;DHT22;48140;45.486;9.226;2023-09-19T11:27:17;29.80;89.10
62154;DHT22;48140;45.486;9.226;2023-09-19T11:29:43;29.90;87.80
62154;DHT22;48140;45.486;9.226;2023-09-19T11:32:10;29.60;88.80
62154;DHT22;48140;45.486;9.226;2023-09-19T11:37:01;29.40;86.60
62154;DHT22;48140;45.486;9.226;2023-09-19T11:39:29;29.50;86.70
62154;DHT22;48140;45.486;9.226;2023-09-19T11:41:55;29.10;87.90
62154;DHT22;48140;45.486;9.226;2023-09-19T11:49:16;31.30;81.80
62154;DHT22;48140;45.486;9.226;2023-09-19T11:51:45;31.20;78.70
62154;DHT22;48140;45.486;9.226;2023-09-19T11:54:13;31.30;77.90
62154;DHT22;48140;45.486;9.226;2023-09-19T11:56:51;30.50;79.00
62154;DHT22;48140;45.486;9.226;2023-09-19T11:59:28;30.70;77.20
62154;DHT22;48140;45.486;9.226;2023-09-19T12:01:58;31.20;77.10
62154;DHT22;48140;45.486;9.226;2023-09-19T12:04:44;31.60;75.10
62154;DHT22;48140;45.486;9.226;2023-09-19T12:07:11;31.00;74.90
62154;DHT22;48140;45.486;9.226;2023-09-19T12:09:48;30.50;76.00
62154;DHT22;48140;45.486;9.226;2023-09-19T12:12:24;30.50;74.80
62154;DHT22;48140;45.486;9.226;2023-09-19T12:14:53;31.20;74.20
62154;DHT22;48140;45.486;9.226;2023-09-19T12:17:38;30.80;74.10
62154;DHT22;48140;45.486;9.226;2023-09-19T12:20:08;30.20;75.30
62154;DHT22;48140;45.486;9.226;2023-09-19T12:22:44;30.60;74.60
62154;DHT22;48140;45.486;9.226;2023-09-19T12:25:12;31.00;71.80
62154;DHT22;48140;45.486;9.226;2023-09-19T12:27:58;31.90;71.40
62154;DHT22;48140;45.486;9.226;2023-09-19T12:30:28;32.30;68.90
62154;DHT22;48140;45.486;9.226;2023-09-19T12:32:53;31.90;69.80
62154;DHT22;48140;45.486;9.226;2023-09-19T12:35:27;32.70;68.70
62154;DHT22;48140;45.486;9.226;2023-09-19T12:37:56;32.90;67.20
62154;DHT22;48140;45.486;9.226;2023-09-19T12:40:22;33.00;66.10
62154;DHT22;48140;45.486;9.226;2023-09-19T12:42:53;31.90;67.10
62154;DHT22;48140;45.486;9.226;2023-09-19T12:45:20;31.30;69.30
62154;DHT22;48140;45.486;9.226;2023-09-19T12:50:33;31.80;69.70
62154;DHT22;48140;45.486;9.226;2023-09-19T12:53:01;31.90;68.90
62154;DHT22;48140;45.486;9.226;2023-09-19T12:57:56;31.70;66.30
62154;DHT22;48140;45.486;9.226;2023-09-19T13:00:31;31.70;66.20
62154;DHT22;48140;45.486;9.226;2023-09-19T13:03:16;32.40;66.80
62154;DHT22;48140;45.486;9.226;2023-09-19T13:08:21;32.60;64.80
62154;DHT22;48140;45.486;9.226;2023-09-19T13:13:35;31.70;66.70
62154;DHT22;48140;45.486;9.226;2023-09-19T13:16:02;31.50;67.30
62154;DHT22;48140;45.486;9.226;2023-09-19T13:18:47;32.20;67.60
62154;DHT22;48140;45.486;9.226;2023-09-19T13:21:16;31.60;66.90
62154;DHT22;48140;45.486;9.226;2023-09-19T13:23:51;31.40;66.90
62154;DHT22;48140;45.486;9.226;2023-09-19T13:26:17;32.10;65.40
62154;DHT22;48140;45.486;9.226;2023-09-19T13:28:43;32.90;64.10
62154;DHT22;48140;45.486;9.226;2023-09-19T13:31:09;32.60;63.80
62154;DHT22;48140;45.486;9.226;2023-09-19T13:33:42;32.10;64.20
62154;DHT22;48140;45.486;9.226;2023-09-19T13:36:08;31.90;64.80
62154;DHT22;48140;45.486;9.226;2023-09-19T13:38:42;32.40;64.50
62154;DHT22;48140;45.486;9.226;2023-09-19T13:41:11;32.30;63.70
62154;DHT22;48140;45.486;9.226;2023-09-19T13:43:37;32.90;62.40
62154;DHT22;48140;45.486;9.226;2023-09-19T13:46:04;33.30;60.70
62154;DHT22;48140;45.486;9.226;2023-09-19T13:48:33;33.60;61.10
62154;DHT22;48140;45.486;9.226;2023-09-19T13:51:04;33.60;60.50
62154;DHT22;48140;45.486;9.226;2023-09-19T13:53:35;33.70;60.60
62154;DHT22;48140;45.486;9.226;2023-09-19T13:56:00;34.10;56.90
62154;DHT22;48140;45.486;9.226;2023-09-19T13:58:29;32.40;59.60
62154;DHT22;48140;45.486;9.226;2023-09-19T14:00:56;32.10;60.70
62154;DHT22;48140;45.486;9.226;2023-09-19T14:03:27;32.10;61.00
62154;DHT22;48140;45.486;9.226;2023-09-19T14:05:53;32.70;60.10
62154;DHT22;48140;45.486;9.226;2023-09-19T14:30:03;32.50;59.30
62154;DHT22;48140;45.486;9.226;2023-09-19T14:32:29;32.50;58.00
62154;DHT22;48140;45.486;9.226;2023-09-19T14:34:55;32.40;57.80
62154;DHT22;48140;45.486;9.226;2023-09-19T14:37:24;32.50;57.50
62154;DHT22;48140;45.486;9.226;2023-09-19T14:39:53;31.70;58.10
62154;DHT22;48140;45.486;9.226;2023-09-19T14:42:22;32.00;58.30
62154;DHT22;48140;45.486;9.226;2023-09-19T14:44:53;32.70;57.70
62154;DHT22;48140;45.486;9.226;2023-09-19T14:47:18;32.60;56.40
62154;DHT22;48140;45.486;9.226;2023-09-19T14:49:44;32.60;55.90
62154;DHT22;48140;45.486;9.226;2023-09-19T14:52:11;32.80;55.90
62154;DHT22;48140;45.486;9.226;2023-09-19T14:54:37;31.50;56.60
62154;DHT22;48140;45.486;9.226;2023-09-19T14:57:06;31.70;57.00
62154;DHT22;48140;45.486;9.226;2023-09-19T14:59:42;31.80;55.80
62154;DHT22;48140;45.486;9.226;2023-09-19T15:02:11;32.30;54.30
62154;DHT22;48140;45.486;9.226;2023-09-19T15:04:36;31.90;55.40
62154;DHT22;48140;45.486;9.226;2023-09-19T15:07:03;32.30;54.90
62154;DHT22;48140;45.486;9.226;2023-09-19T15:09:32;32.00;55.30
62154;DHT22;48140;45.486;9.226;2023-09-19T15:12:12;32.00;55.10
62154;DHT22;48140;45.486;9.226;2023-09-19T15:14:40;32.10;54.80
62154;DHT22;48140;45.486;9.226;2023-09-19T15:17:06;31.80;55.60
62154;DHT22;48140;45.486;9.226;2023-09-19T15:19:32;32.30;55.40
62154;DHT22;48140;45.486;9.226;2023-09-19T15:21:57;32.50;54.20
62154;DHT22;48140;45.486;9.226;2023-09-19T15:24:23;33.10;54.90
62154;DHT22;48140;45.486;9.226;2023-09-19T15:26:52;32.60;52.60
62154;DHT22;48140;45.486;9.226;2023-09-19T15:29:23;31.90;54.70
62154;DHT22;48140;45.486;9.226;2023-09-19T15:31:49;31.50;55.10
62154;DHT22;48140;45.486;9.226;2023-09-19T15:34:15;31.90;54.70
62154;DHT22;48140;45.486;9.226;2023-09-19T15:36:41;31.90;55.20
62154;DHT22;48140;45.486;9.226;2023-09-19T15:39:07;31.50;54.90
62154;DHT22;48140;45.486;9.226;2023-09-19T15:41:40;31.70;55.60
62154;DHT22;48140;45.486;9.226;2023-09-19T15:44:12;32.10;54.90
62154;DHT22;48140;45.486;9.226;2023-09-19T15:46:41;32.30;55.40
62154;DHT22;48140;45.486;9.226;2023-09-19T15:49:10;32.30;55.20
62154;DHT22;48140;45.486;9.226;2023-09-19T15:51:36;32.30;53.70
62154;DHT22;48140;45.486;9.226;2023-09-19T15:54:10;32.30;55.20
62154;DHT22;48140;45.486;9.226;2023-09-19T15:56:36;32.00;54.90
62154;DHT22;48140;45.486;9.226;2023-09-19T15:59:01;32.10;54.10
62154;DHT22;48140;45.486;9.226;2023-09-19T16:01:30;32.00;55.80
62154;DHT22;48140;45.486;9.226;2023-09-19T16:03:55;32.10;55.50
62154;DHT22;48140;45.486;9.226;2023-09-19T16:06:22;32.30;53.70
62154;DHT22;48140;45.486;9.226;2023-09-19T16:08:51;32.20;54.80
62154;DHT22;48140;45.486;9.226;2023-09-19T16:11:18;31.90;53.70
62154;DHT22;48140;45.486;9.226;2023-09-19T16:13:45;31.40;54.50
62154;DHT22;48140;45.486;9.226;2023-09-19T16:16:12;31.40;54.50
62154;DHT22;48140;45.486;9.226;2023-09-19T16:18:38;31.90;56.00
62154;DHT22;48140;45.486;9.226;2023-09-19T16:21:05;31.50;54.00
62154;DHT22;48140;45.486;9.226;2023-09-19T16:23:34;31.40;55.00
62154;DHT22;48140;45.486;9.226;2023-09-19T16:26:07;31.40;55.50
62154;DHT22;48140;45.486;9.226;2023-09-19T16:28:34;31.20;55.60
62154;DHT22;48140;45.486;9.226;2023-09-19T16:31:07;31.00;56.20
62154;DHT22;48140;45.486;9.226;2023-09-19T16:33:36;30.60;57.30
62154;DHT22;48140;45.486;9.226;2023-09-19T16:36:09;30.60;57.70
62154;DHT22;48140;45.486;9.226;2023-09-19T16:38:35;30.60;57.40
62154;DHT22;48140;45.486;9.226;2023-09-19T16:41:02;30.40;57.40
62154;DHT22;48140;45.486;9.226;2023-09-19T16:43:39;30.60;57.50
62154;DHT22;48140;45.486;9.226;2023-09-19T16:46:09;30.50;57.00